createdAt,value
2019-04-28T00:01:54.667Z,100325.42
2019-04-28T00:06:56.875Z,100327.63
2019-04-28T00:12:01.762Z,100327.54
2019-04-28T00:17:06.816Z,100333.55
2019-04-28T00:22:37.389Z,100328.56
2019-04-28T00:27:39.350Z,100327.78
2019-04-28T00:32:41.838Z,100332.01
2019-04-28T00:37:43.943Z,100334.81
2019-04-28T00:42:45.923Z,100336.00
2019-04-28T00:47:48.035Z,100336.31
2019-04-28T00:52:51.778Z,100322.20
2019-04-28T00:57:53.866Z,100326.42
2019-04-28T01:02:56.003Z,100346.06
2019-04-28T01:07:58.582Z,100341.97
2019-04-28T01:13:02.095Z,100341.06
2019-04-28T01:18:10.799Z,100342.69
2019-04-28T01:23:12.887Z,100339.34
2019-04-28T01:28:15.752Z,100338.19
2019-04-28T01:33:36.164Z,100337.36
2019-04-28T01:38:39.693Z,100340.21
2019-04-28T01:43:42.218Z,100343.84
2019-04-28T01:48:44.224Z,100347.96
2019-04-28T01:53:46.264Z,100345.63
2019-04-28T01:58:49.967Z,100347.58
2019-04-28T02:03:52.308Z,100349.72
2019-04-28T02:08:54.333Z,100349.84
2019-04-28T02:13:59.584Z,100358.75
2019-04-28T02:19:01.892Z,100362.31
2019-04-28T02:24:22.402Z,100367.96
2019-04-28T02:29:24.586Z,100371.53
2019-04-28T02:34:26.726Z,100372.05
2019-04-28T02:39:31.262Z,100374.11
2019-04-28T02:44:34.959Z,100374.55
2019-04-28T02:49:46.802Z,100377.67
2019-04-28T02:54:50.837Z,100375.47
2019-04-28T02:59:52.745Z,100381.98
2019-04-28T03:04:54.732Z,100380.28
2019-04-28T03:09:56.917Z,100381.09
2019-04-28T03:15:00.625Z,100384.38
2019-04-28T03:20:03.425Z,100388.37
2019-04-28T03:25:11.008Z,100387.84
2019-04-28T03:30:33.821Z,100385.44
2019-04-28T03:35:35.323Z,100384.38
2019-04-28T03:40:37.506Z,100387.11
2019-04-28T03:45:45.573Z,100393.73
2019-04-28T03:50:47.886Z,100395.41
2019-04-28T03:55:51.235Z,100397.41
2019-04-28T04:00:53.556Z,100409.86
2019-04-28T04:05:57.208Z,100414.41
2019-04-28T04:11:06.154Z,100424.81
2019-04-28T04:16:20.532Z,100432.42
2019-04-28T04:21:22.042Z,100435.94
2019-04-28T04:26:24.138Z,100441.47
2019-04-28T04:31:26.226Z,100440.94
2019-04-28T04:36:31.049Z,100443.75
2019-04-28T04:41:33.394Z,100437.72
2019-04-28T04:46:35.680Z,100432.09
2019-04-28T04:51:37.698Z,100420.98
2019-04-28T04:56:41.782Z,100424.89
2019-04-28T05:01:51.071Z,100428.34
2019-04-28T05:06:53.195Z,100440.94
2019-04-28T05:11:55.208Z,100458.88
2019-04-28T05:16:57.323Z,100468.09
2019-04-28T05:22:00.123Z,100481.41
2019-04-28T05:27:03.187Z,100493.27
2019-04-28T05:32:05.533Z,100499.19
2019-04-28T05:37:07.662Z,100509.97
2019-04-28T05:42:11.348Z,100509.03
2019-04-28T05:47:13.651Z,100523.43
2019-04-28T05:52:37.537Z,100535.86
2019-04-28T05:57:43.718Z,100543.83
2019-04-28T06:02:55.535Z,100543.52
2019-04-28T06:08:16.916Z,100551.50
2019-04-28T06:13:20.225Z,100553.97
2019-04-28T06:18:22.408Z,100556.41
2019-04-28T06:23:24.366Z,100559.92
2019-04-28T06:28:26.424Z,100557.89
2019-04-28T06:33:28.464Z,100559.41
2019-04-28T06:38:30.471Z,100558.13
2019-04-28T06:43:32.633Z,100555.22
2019-04-28T06:48:34.646Z,100562.33
2019-04-28T06:53:36.610Z,100560.80
2019-04-28T06:58:38.573Z,100559.70
2019-04-28T07:03:40.788Z,100564.00
2019-04-28T07:08:42.897Z,100570.77
2019-04-28T07:13:45.086Z,100577.52
2019-04-28T07:18:47.262Z,100581.02
2019-04-28T07:23:49.923Z,100589.91
2019-04-28T07:28:51.964Z,100591.27
2019-04-28T07:33:54.241Z,100599.55
2019-04-28T07:38:56.352Z,100605.11
2019-04-28T07:43:58.422Z,100610.17
2019-04-28T07:49:00.527Z,100613.39
2019-04-28T07:54:08.993Z,100629.91
2019-04-28T07:59:11.199Z,100635.58
2019-04-28T08:04:13.491Z,100638.83
2019-04-28T08:09:16.982Z,100652.54
2019-04-28T08:14:19.772Z,100655.75
2019-04-28T08:19:22.390Z,100665.44
2019-04-28T08:24:24.464Z,100676.06
2019-04-28T08:29:26.731Z,100677.70
2019-04-28T08:34:28.815Z,100686.03
2019-04-28T08:39:31.028Z,100696.38
2019-04-28T08:44:33.100Z,100702.39
2019-04-28T08:49:35.206Z,100706.58
2019-04-28T08:54:37.334Z,100703.78
2019-04-28T08:59:39.435Z,100705.75
2019-04-28T09:04:41.412Z,100707.75
2019-04-28T09:09:43.593Z,100703.06
2019-04-28T09:14:45.686Z,100704.39
2019-04-28T09:19:47.740Z,100707.81
2019-04-28T09:24:49.719Z,100711.95
2019-04-28T09:29:51.854Z,100725.48
2019-04-28T09:34:56.061Z,100713.73
2019-04-28T09:40:02.850Z,100714.89
2019-04-28T09:45:06.913Z,100711.75
2019-04-28T09:50:09.202Z,100711.64
2019-04-28T09:55:11.413Z,100706.27
2019-04-28T10:00:14.018Z,100709.26
2019-04-28T10:05:16.196Z,100708.63
2019-04-28T10:10:18.422Z,100709.97
2019-04-28T10:15:20.574Z,100698.66
2019-04-28T10:20:22.757Z,100700.59
2019-04-28T10:25:24.848Z,100701.20
2019-04-28T10:30:26.983Z,100706.06
2019-04-28T10:35:29.079Z,100694.66
2019-04-28T10:40:33.637Z,100695.62
2019-04-28T10:45:46.728Z,100690.61
2019-04-28T10:50:49.993Z,100678.55
2019-04-28T10:55:52.221Z,100697.09
2019-04-28T11:00:54.427Z,100693.36
2019-04-28T11:05:56.562Z,100697.23
2019-04-28T11:11:02.246Z,100691.35
2019-04-28T11:16:04.522Z,100684.97
2019-04-28T11:21:06.588Z,100684.47
2019-04-28T11:26:08.906Z,100689.17
2019-04-28T11:31:11.129Z,100684.66
2019-04-28T11:36:14.949Z,100688.16
2019-04-28T11:41:17.138Z,100694.23
2019-04-28T11:46:21.495Z,100688.52
2019-04-28T11:51:24.582Z,100691.89
2019-04-28T11:56:26.777Z,100696.95
2019-04-28T12:01:28.943Z,100684.67
2019-04-28T12:06:31.038Z,100672.88
2019-04-28T12:11:36.436Z,100680.59
2019-04-28T12:16:48.720Z,100688.71
2019-04-28T12:21:52.036Z,100691.86
2019-04-28T12:26:54.214Z,100701.80
2019-04-28T12:31:56.395Z,100697.84
2019-04-28T12:36:58.562Z,100700.79
2019-04-28T12:42:01.971Z,100701.53
2019-04-28T12:47:05.142Z,100703.51
2019-04-28T12:52:10.529Z,100698.56
2019-04-28T12:57:12.719Z,100695.06
2019-04-28T13:02:31.358Z,100696.52
2019-04-28T13:07:33.478Z,100696.05
2019-04-28T13:12:35.561Z,100697.79
2019-04-28T13:17:39.553Z,100703.29
2019-04-28T13:22:41.591Z,100698.27
2019-04-28T13:27:44.841Z,100695.41
2019-04-28T13:32:47.069Z,100703.98
2019-04-28T13:38:32.911Z,100693.70
2019-04-28T13:43:35.356Z,100693.48
2019-04-28T13:48:37.435Z,100694.27
2019-04-28T13:53:39.514Z,100696.95
2019-04-28T13:59:02.112Z,100692.28
2019-04-28T14:09:38.297Z,100688.77
2019-04-28T14:14:39.316Z,100687.53
2019-04-28T14:19:41.446Z,100686.34
2019-04-28T14:24:43.722Z,100682.66
2019-04-28T14:29:47.013Z,100687.55
2019-04-28T14:34:49.043Z,100682.64
2019-04-28T14:40:28.452Z,100684.17
2019-04-28T14:45:30.586Z,100689.72
2019-04-28T14:50:32.581Z,100688.33
2019-04-28T14:55:34.785Z,100684.27
2019-04-28T15:00:42.227Z,100686.56
2019-04-28T15:06:02.081Z,100693.19
2019-04-28T15:11:22.576Z,100692.42
2019-04-28T15:16:24.688Z,100697.05
2019-04-28T15:21:26.751Z,100698.23
2019-04-28T15:26:39.434Z,100692.84
2019-04-28T15:31:41.544Z,100698.42
2019-04-28T15:36:43.543Z,100700.79
2019-04-28T15:41:45.552Z,100709.75
2019-04-28T15:46:47.631Z,100715.00
2019-04-28T15:51:49.695Z,100714.98
2019-04-28T15:56:51.678Z,100714.34
2019-04-28T16:01:53.739Z,100728.74
2019-04-28T16:06:55.825Z,100724.34
2019-04-28T16:11:57.963Z,100719.29
2019-04-28T16:16:59.945Z,100722.48
2019-04-28T16:22:02.138Z,100712.27
2019-04-28T16:27:04.239Z,100721.67
2019-04-28T16:32:09.578Z,100721.67
2019-04-28T16:37:10.509Z,100723.53
2019-04-28T16:42:12.636Z,100724.69
2019-04-28T16:47:14.727Z,100729.37
2019-04-28T16:52:16.743Z,100722.22
2019-04-28T16:57:35.937Z,100723.38
2019-04-28T17:02:46.684Z,100733.70
2019-04-28T17:07:52.737Z,100734.25
2019-04-28T17:12:52.840Z,100739.64
2019-04-28T17:17:54.823Z,100743.87
2019-04-28T17:22:57.314Z,100750.62
2019-04-28T17:27:59.487Z,100753.81
2019-04-28T17:33:01.669Z,100753.33
2019-04-28T17:38:06.744Z,100765.28
2019-04-28T17:43:08.426Z,100763.38
2019-04-28T17:48:24.702Z,100764.06
2019-04-28T17:53:26.880Z,100781.57
2019-04-28T17:58:29.230Z,100777.02
2019-04-28T18:03:50.067Z,100784.41
2019-04-28T18:08:52.134Z,100785.62
2019-04-28T18:13:54.496Z,100793.33
2019-04-28T18:19:04.626Z,100790.13
2019-04-28T18:24:06.842Z,100795.05
2019-04-28T18:29:08.978Z,100804.76
2019-04-28T18:34:42.826Z,100811.30
2019-04-28T18:40:03.029Z,100825.73
2019-04-28T18:45:05.914Z,100824.56
2019-04-28T18:50:08.702Z,100828.27
2019-04-28T18:55:11.027Z,100830.08
2019-04-28T19:00:13.636Z,100838.14
2019-04-28T19:05:16.015Z,100847.70
2019-04-28T19:10:35.098Z,100856.15
2019-04-28T19:15:52.626Z,100861.80
2019-04-28T19:20:55.071Z,100859.84
2019-04-28T19:25:57.178Z,100873.86
2019-04-28T19:30:59.341Z,100873.97
2019-04-28T19:36:01.543Z,100881.84
2019-04-28T19:41:03.723Z,100882.48
2019-04-28T19:46:08.783Z,100889.20
2019-04-28T19:51:10.761Z,100890.52
2019-04-28T19:56:31.655Z,100891.48
2019-04-28T20:01:33.892Z,100896.00
2019-04-28T20:06:36.008Z,100903.01
2019-04-28T20:11:38.205Z,100897.72
2019-04-28T20:16:40.434Z,100898.70
2019-04-28T20:21:43.141Z,100907.27
2019-04-28T20:26:47.083Z,100898.53
2019-04-28T20:31:49.200Z,100899.34
2019-04-28T20:37:00.384Z,100903.56
2019-04-28T20:42:20.607Z,100910.84
2019-04-28T20:47:22.843Z,100904.07
2019-04-28T20:52:37.026Z,100907.06
2019-04-28T20:57:39.146Z,100909.05
2019-04-28T21:02:41.322Z,100912.08
2019-04-28T21:07:43.583Z,100909.75
2019-04-28T21:12:46.550Z,100904.22
2019-04-28T21:17:49.570Z,100907.00
2019-04-28T21:22:51.535Z,100915.06
2019-04-28T21:27:53.668Z,100907.58
2019-04-28T21:32:55.706Z,100915.30
2019-04-28T21:37:57.672Z,100913.11
2019-04-28T21:43:14.113Z,100911.63
2019-04-28T21:48:38.071Z,100913.27
2019-04-28T21:53:40.206Z,100920.88
2019-04-28T21:58:43.198Z,100915.97
2019-04-28T22:03:46.100Z,100916.90
2019-04-28T22:08:48.281Z,100923.44
2019-04-28T22:13:50.358Z,100926.95
2019-04-28T22:18:52.378Z,100932.08
2019-04-28T22:24:01.002Z,100927.80
2019-04-28T22:29:03.197Z,100936.84
2019-04-28T22:34:06.416Z,100934.42
2019-04-28T22:39:11.546Z,100934.27
2019-04-28T22:44:13.684Z,100938.18
2019-04-28T22:49:15.882Z,100946.60
2019-04-28T22:54:33.503Z,100949.94
2019-04-28T22:59:39.729Z,100944.12
2019-04-28T23:04:56.204Z,100949.86
2019-04-28T23:09:59.201Z,100957.72
2019-04-28T23:15:01.334Z,100954.80
2019-04-28T23:20:08.624Z,100954.30
2019-04-28T23:25:11.111Z,100955.30
2019-04-28T23:30:44.186Z,100960.41
2019-04-28T23:35:46.327Z,100954.48
2019-04-28T23:41:01.042Z,100955.59
2019-04-28T23:46:03.315Z,100956.72
2019-04-28T23:51:13.336Z,100958.56
2019-04-28T23:56:15.537Z,100956.30
